Time;durP1;ratioP1;P1;durP2;ratioP2;P2;SDS_P1;SDS_P2;PMS_P1;PMS_P2;Temp;Humidity;BMP_temperature;BMP_pressure;BME280_temperature;BME280_humidity;BME280_pressure;Samples;Min_cycle;Max_cycle;Signal;HPM_P1;HPM_P2
2021/12/06 00:01:10;;;;;;;;;;;5.10;99.90;;;;;;10329635;28;86956;-49
2021/12/06 00:06:12;;;;;;;;;;;5.20;99.90;;;;;;10330100;28;84015;-48
2021/12/06 00:11:14;;;;;;;;;;;5.10;99.90;;;;;;10330839;28;84439;-49
2021/12/06 00:16:18;;;;;;;;;;;5.10;99.90;;;;;;10328928;28;84963;-48
2021/12/06 00:21:20;;;;;;;;;;;5.10;99.90;;;;;;10327358;28;85492;-47
2021/12/06 00:26:20;;;;;;;;;;;5.00;99.90;;;;;;10327592;28;85041;-48
2021/12/06 00:31:21;;;;;;;;;;;5.00;99.90;;;;;;10327680;28;84843;-49
2021/12/06 00:36:27;;;;;;;;;;;5.00;99.90;;;;;;10328677;28;84130;-47
2021/12/06 00:41:28;;;;;;;;;;;4.90;99.90;;;;;;10327513;28;85865;-51
2021/12/06 00:46:28;;;;;;;;;;;4.90;99.90;;;;;;10328775;28;85142;-49
2021/12/06 00:51:29;;;;;;;;;;;4.80;99.90;;;;;;10328812;28;84045;-50
2021/12/06 00:56:30;;;;;;;;;;;4.80;99.90;;;;;;10324526;28;85731;-50
2021/12/06 01:01:31;;;;;;;;;;;4.80;99.90;;;;;;10324118;28;84002;-47
2021/12/06 01:06:33;;;;;;;;;;;4.70;99.90;;;;;;10324690;28;86660;-46
2021/12/06 01:11:33;;;;;;;;;;;4.70;99.90;;;;;;10326953;28;86010;-50
2021/12/06 01:16:34;;;;;;;;;;;4.70;99.90;;;;;;10326031;28;85039;-48
2021/12/06 01:22:06;;;;;;;;;;;4.60;99.90;;;;;;10326566;28;87208;-50
2021/12/06 01:42:25;;;;;;;;;;;4.40;99.90;;;;;;10325513;28;85798;-48
2021/12/06 01:47:29;;;;;;;;;;;4.40;99.90;;;;;;10324880;28;85960;-52
2021/12/06 01:52:31;;;;;;;;;;;4.50;99.90;;;;;;10326137;28;86569;-45
2021/12/06 01:57:32;;;;;;;;;;;4.50;99.90;;;;;;10326379;28;84930;-47
2021/12/06 02:02:33;;;;;;;;;;;4.50;99.90;;;;;;10325900;28;86848;-48
2021/12/06 02:07:34;;;;;;;;;;;4.50;99.90;;;;;;10323104;28;86000;-47
2021/12/06 02:12:35;;;;;;;;;;;4.50;99.90;;;;;;10324861;28;85907;-49
2021/12/06 02:17:41;;;;;;;;;;;4.40;99.90;;;;;;10323931;28;86416;-47
2021/12/06 02:22:42;;;;;;;;;;;4.40;99.90;;;;;;10326858;28;84733;-48
2021/12/06 02:27:43;;;;;;;;;;;4.20;99.90;;;;;;10324459;28;84990;-46
2021/12/06 02:32:47;;;;;;;;;;;4.20;99.90;;;;;;10325520;28;85720;-48
2021/12/06 02:37:49;;;;;;;;;;;4.10;99.90;;;;;;10308407;28;86853;-48
2021/12/06 02:42:50;;;;;;;;;;;4.20;99.90;;;;;;10326209;28;85009;-48
2021/12/06 02:47:53;;;;;;;;;;;4.30;99.90;;;;;;10325609;28;84132;-46
2021/12/06 02:52:55;;;;;;;;;;;4.20;99.90;;;;;;10324311;28;85941;-46
2021/12/06 02:57:58;;;;;;;;;;;4.10;99.90;;;;;;10323849;28;85930;-44
2021/12/06 03:02:59;;;;;;;;;;;4.20;99.90;;;;;;10330306;28;86034;-49
2021/12/06 03:08:02;;;;;;;;;;;4.20;99.90;;;;;;10331454;28;85776;-48
2021/12/06 03:13:03;;;;;;;;;;;4.30;99.90;;;;;;10330122;28;86944;-48
2021/12/06 03:18:04;;;;;;;;;;;4.30;99.90;;;;;;10330826;28;84140;-49
2021/12/06 03:23:04;;;;;;;;;;;4.30;99.90;;;;;;10330191;28;86714;-47
2021/12/06 03:28:06;;;;;;;;;;;4.30;99.90;;;;;;10329454;28;85944;-49
2021/12/06 03:33:06;;;;;;;;;;;4.40;99.90;;;;;;10331247;28;84698;-50
2021/12/06 03:38:07;;;;;;;;;;;4.40;99.90;;;;;;10329432;28;86129;-47
2021/12/06 03:43:08;;;;;;;;;;;4.50;99.90;;;;;;10329536;28;86771;-50
2021/12/06 03:48:09;;;;;;;;;;;4.40;99.90;;;;;;10329003;28;84960;-49
2021/12/06 03:53:10;;;;;;;;;;;4.50;99.90;;;;;;10330947;28;84358;-47
2021/12/06 03:58:11;;;;;;;;;;;4.40;99.90;;;;;;10328672;28;86519;-50
2021/12/06 04:03:11;;;;;;;;;;;4.40;99.90;;;;;;10329499;28;84926;-51
2021/12/06 04:08:12;;;;;;;;;;;4.40;99.90;;;;;;10329200;28;85803;-48
2021/12/06 04:13:13;;;;;;;;;;;4.50;99.90;;;;;;10328246;28;84159;-52
2021/12/06 04:18:15;;;;;;;;;;;4.40;99.90;;;;;;10370217;22;86850;-51
2021/12/06 04:23:16;;;;;;;;;;;4.40;99.90;;;;;;10370150;28;87223;-53
2021/12/06 04:28:19;;;;;;;;;;;4.40;99.90;;;;;;10371864;28;84779;-51
2021/12/06 04:33:21;;;;;;;;;;;4.40;99.90;;;;;;10370134;28;86239;-51
2021/12/06 04:38:22;;;;;;;;;;;4.40;99.90;;;;;;10369538;28;86829;-51
2021/12/06 04:43:23;;;;;;;;;;;4.40;99.90;;;;;;10370017;28;85976;-54
2021/12/06 04:48:24;;;;;;;;;;;4.40;99.90;;;;;;10367666;28;86909;-55
2021/12/06 04:53:27;;;;;;;;;;;4.30;99.90;;;;;;10347308;28;86821;-50
2021/12/06 04:58:30;;;;;;;;;;;4.30;99.90;;;;;;10368368;28;86849;-54
2021/12/06 05:03:33;;;;;;;;;;;4.40;99.90;;;;;;10369016;28;86543;-53
2021/12/06 05:08:38;;;;;;;;;;;4.30;99.90;;;;;;10371978;28;84888;-53
2021/12/06 05:13:41;;;;;;;;;;;4.10;99.90;;;;;;10360938;28;85950;-51
2021/12/06 05:18:43;;;;;;;;;;;4.00;99.90;;;;;;10349862;28;85888;-51
2021/12/06 05:23:43;;;;;;;;;;;4.10;99.90;;;;;;10344963;28;84925;-50
2021/12/06 05:28:46;;;;;;;;;;;4.10;99.90;;;;;;10347072;28;86626;-50
2021/12/06 05:33:56;;;;;;;;;;;4.10;99.90;;;;;;10345016;28;86748;-53
2021/12/06 05:38:57;;;;;;;;;;;4.00;99.90;;;;;;10347593;28;84280;-50
2021/12/06 05:43:57;;;;;;;;;;;3.90;99.90;;;;;;10347359;28;84119;-50
2021/12/06 05:48:58;;;;;;;;;;;4.00;99.90;;;;;;10361057;28;84451;-51
2021/12/06 05:53:58;;;;;;;;;;;4.00;99.90;;;;;;10367698;28;85102;-54
2021/12/06 05:58:59;;;;;;;;;;;4.00;99.90;;;;;;10364959;28;84244;-55
2021/12/06 06:04:01;;;;;;;;;;;4.00;99.90;;;;;;10352452;28;85891;-53
2021/12/06 06:09:03;;;;;;;;;;;4.00;99.90;;;;;;10353155;28;86915;-52
2021/12/06 06:14:04;;;;;;;;;;;4.00;99.90;;;;;;10345840;28;86381;-53
2021/12/06 06:19:05;;;;;;;;;;;4.00;99.90;;;;;;10359883;28;85003;-55
2021/12/06 06:24:05;;;;;;;;;;;4.00;99.90;;;;;;10357888;28;84239;-51
2021/12/06 06:29:06;;;;;;;;;;;4.00;99.90;;;;;;10365256;28;84441;-48
2021/12/06 06:34:07;;;;;;;;;;;4.00;99.90;;;;;;10366264;28;84927;-52
2021/12/06 06:39:08;;;;;;;;;;;4.00;99.90;;;;;;10364272;28;84895;-59
2021/12/06 06:44:09;;;;;;;;;;;4.00;99.90;;;;;;10357512;28;84304;-52
2021/12/06 06:49:10;;;;;;;;;;;4.10;99.90;;;;;;10358265;28;85801;-60
2021/12/06 06:54:10;;;;;;;;;;;4.00;99.90;;;;;;10375563;28;84031;-56
2021/12/06 06:59:11;;;;;;;;;;;4.10;99.90;;;;;;10362332;28;84987;-55
2021/12/06 07:04:13;;;;;;;;;;;4.20;99.90;;;;;;10370178;28;84759;-54
2021/12/06 07:09:13;;;;;;;;;;;4.20;99.90;;;;;;10371839;28;84151;-56
2021/12/06 07:14:14;;;;;;;;;;;4.10;99.90;;;;;;10374337;28;84940;-50
2021/12/06 07:19:14;;;;;;;;;;;4.20;99.90;;;;;;10373002;28;84298;-51
2021/12/06 07:24:15;;;;;;;;;;;4.10;99.90;;;;;;10373495;28;84202;-51
2021/12/06 07:29:16;;;;;;;;;;;4.00;99.90;;;;;;10349793;28;84282;-48
2021/12/06 07:34:16;;;;;;;;;;;4.00;99.90;;;;;;10331321;28;86703;-59
2021/12/06 07:39:17;;;;;;;;;;;4.00;99.90;;;;;;10367027;28;84236;-57
2021/12/06 07:44:18;;;;;;;;;;;3.90;99.90;;;;;;10372279;28;84864;-57
2021/12/06 07:49:20;;;;;;;;;;;4.00;99.90;;;;;;10342317;28;84872;-52
2021/12/06 07:54:21;;;;;;;;;;;4.00;99.90;;;;;;10365067;28;84721;-57
2021/12/06 07:59:21;;;;;;;;;;;3.80;99.90;;;;;;10329344;28;86197;-51
2021/12/06 08:04:22;;;;;;;;;;;3.80;99.90;;;;;;10331125;28;85114;-59
2021/12/06 08:09:23;;;;;;;;;;;3.90;99.90;;;;;;10330862;28;84908;-58
2021/12/06 08:14:23;;;;;;;;;;;3.90;99.90;;;;;;10331207;28;84919;-54
2021/12/06 08:19:24;;;;;;;;;;;3.90;99.90;;;;;;10330346;28;84840;-57
2021/12/06 08:24:24;;;;;;;;;;;3.80;99.90;;;;;;10329344;28;87149;-54
2021/12/06 08:29:27;;;;;;;;;;;4.00;99.90;;;;;;10329346;28;85003;-60
2021/12/06 08:34:29;;;;;;;;;;;4.00;99.90;;;;;;10330002;28;84218;-58
2021/12/06 08:39:29;;;;;;;;;;;4.10;99.90;;;;;;10330006;28;84723;-57
2021/12/06 08:44:30;;;;;;;;;;;4.20;99.90;;;;;;10329137;28;85960;-53
2021/12/06 08:49:30;;;;;;;;;;;4.30;99.90;;;;;;10330290;28;85030;-53
2021/12/06 08:54:31;;;;;;;;;;;4.40;99.90;;;;;;10329308;28;84165;-56
2021/12/06 08:59:31;;;;;;;;;;;4.40;99.90;;;;;;10328297;28;84779;-59
2021/12/06 09:04:34;;;;;;;;;;;4.40;99.90;;;;;;10329899;28;85057;-55
2021/12/06 09:09:34;;;;;;;;;;;4.20;99.90;;;;;;10343028;28;84345;-54
2021/12/06 09:14:35;;;;;;;;;;;4.10;99.90;;;;;;10361079;28;87021;-47
2021/12/06 09:19:35;;;;;;;;;;;4.20;99.90;;;;;;10368573;28;87003;-48
2021/12/06 09:24:36;;;;;;;;;;;4.20;99.90;;;;;;10367544;28;85353;-49
2021/12/06 09:29:37;;;;;;;;;;;4.40;99.90;;;;;;10369909;28;84268;-56
2021/12/06 09:34:40;;;;;;;;;;;4.50;99.90;;;;;;10370025;28;84040;-59
2021/12/06 09:39:40;;;;;;;;;;;4.40;99.90;;;;;;10369979;28;83985;-58
2021/12/06 09:44:41;;;;;;;;;;;4.00;99.90;;;;;;10369734;28;85049;-54
2021/12/06 09:49:41;;;;;;;;;;;4.10;99.90;;;;;;10368654;28;84912;-62
2021/12/06 09:54:42;;;;;;;;;;;4.10;99.90;;;;;;10369524;28;84036;-59
2021/12/06 09:59:45;;;;;;;;;;;4.20;99.90;;;;;;10368653;28;84582;-51
2021/12/06 10:04:49;;;;;;;;;;;4.20;99.90;;;;;;10362130;28;84222;-51
2021/12/06 10:09:51;;;;;;;;;;;4.30;99.90;;;;;;10351078;28;84215;-50
2021/12/06 10:14:52;;;;;;;;;;;4.00;99.90;;;;;;10353038;28;84888;-54
2021/12/06 10:19:52;;;;;;;;;;;3.90;99.90;;;;;;10336987;22;84415;-54
2021/12/06 10:24:55;;;;;;;;;;;3.80;99.90;;;;;;10320526;28;85183;-61
2021/12/06 10:30:00;;;;;;;;;;;3.90;99.90;;;;;;10344583;28;84899;-60
2021/12/06 10:35:08;;;;;;;;;;;4.20;99.90;;;;;;10345618;28;84276;-61
2021/12/06 10:40:10;;;;;;;;;;;4.20;99.90;;;;;;10354163;28;84171;-60
2021/12/06 10:45:16;;;;;;;;;;;4.10;99.90;;;;;;10302052;28;86020;-61
2021/12/06 10:50:18;;;;;;;;;;;4.20;99.90;;;;;;10302413;28;84888;-59
2021/12/06 10:55:19;;;;;;;;;;;4.40;99.90;;;;;;10310640;28;84239;-57
2021/12/06 11:00:38;;;;;;;;;;;4.40;99.90;;;;;;10302004;28;84269;-59
2021/12/06 11:05:43;;;;;;;;;;;4.60;99.90;;;;;;10302149;28;84084;-55
2021/12/06 11:10:46;;;;;;;;;;;4.80;99.90;;;;;;10308594;28;84785;-61
2021/12/06 11:15:59;;;;;;;;;;;4.90;99.90;;;;;;10304994;28;85143;-56
2021/12/06 11:21:01;;;;;;;;;;;5.00;99.90;;;;;;10309767;28;84249;-61
2021/12/06 11:26:04;;;;;;;;;;;4.90;99.90;;;;;;10305746;28;84228;-52
2021/12/06 11:31:05;;;;;;;;;;;5.00;99.90;;;;;;10296654;28;85871;-62
2021/12/06 11:36:18;;;;;;;;;;;4.90;99.90;;;;;;10303363;28;85542;-55
2021/12/06 11:41:19;;;;;;;;;;;4.80;99.90;;;;;;10280031;28;84429;-57
2021/12/06 11:46:28;;;;;;;;;;;4.70;99.90;;;;;;10327047;28;84996;-45
2021/12/06 11:51:28;;;;;;;;;;;4.70;99.90;;;;;;10333156;28;84239;-49
2021/12/06 11:56:31;;;;;;;;;;;4.80;99.90;;;;;;10319998;28;85060;-50
2021/12/06 12:01:39;;;;;;;;;;;4.80;99.90;;;;;;10296275;28;84927;-48
2021/12/06 12:06:44;;;;;;;;;;;4.70;99.90;;;;;;10305518;28;84180;-54
2021/12/06 12:11:59;;;;;;;;;;;4.90;99.90;;;;;;10290055;28;84757;-51
2021/12/06 12:17:01;;;;;;;;;;;5.00;99.90;;;;;;10288524;28;85378;-47
2021/12/06 12:22:02;;;;;;;;;;;4.90;99.90;;;;;;10290088;28;84852;-52
2021/12/06 12:27:16;;;;;;;;;;;5.20;99.90;;;;;;10289410;28;84763;-49
2021/12/06 12:32:17;;;;;;;;;;;5.30;99.90;;;;;;10289282;28;84088;-49
2021/12/06 12:37:19;;;;;;;;;;;5.50;99.90;;;;;;10288231;28;86829;-51
2021/12/06 12:42:19;;;;;;;;;;;5.30;99.90;;;;;;10291129;28;84258;-50
2021/12/06 12:47:22;;;;;;;;;;;5.30;99.90;;;;;;10288229;28;84201;-48
2021/12/06 12:52:42;;;;;;;;;;;5.40;99.90;;;;;;10285078;28;86061;-47
2021/12/06 12:57:43;;;;;;;;;;;5.30;99.90;;;;;;10262180;28;84118;-61
2021/12/06 13:02:45;;;;;;;;;;;5.20;99.90;;;;;;10277054;28;87182;-58
2021/12/06 13:07:49;;;;;;;;;;;5.30;99.90;;;;;;10271469;28;84205;-55
2021/12/06 13:13:12;;;;;;;;;;;5.40;99.90;;;;;;10237873;28;84952;-46
2021/12/06 13:18:29;;;;;;;;;;;5.40;99.90;;;;;;10246359;28;84091;-48
2021/12/06 13:23:31;;;;;;;;;;;5.30;99.90;;;;;;10247615;28;84886;-47
2021/12/06 13:28:51;;;;;;;;;;;5.20;99.90;;;;;;10245020;28;86888;-48
2021/12/06 13:33:53;;;;;;;;;;;4.90;99.90;;;;;;10253688;28;86748;-62
2021/12/06 13:38:54;;;;;;;;;;;4.70;99.90;;;;;;10236204;28;87070;-55
2021/12/06 13:44:08;;;;;;;;;;;5.00;99.90;;;;;;10253549;28;84753;-48
2021/12/06 13:49:12;;;;;;;;;;;4.80;99.90;;;;;;10285694;28;84139;-51
2021/12/06 13:54:18;;;;;;;;;;;4.60;99.90;;;;;;10285684;28;86650;-54
2021/12/06 13:59:21;;;;;;;;;;;4.40;99.90;;;;;;10286897;28;84820;-47
2021/12/06 14:04:23;;;;;;;;;;;4.50;99.90;;;;;;10286779;28;84558;-50
2021/12/06 14:09:25;;;;;;;;;;;4.60;99.90;;;;;;10286604;28;84132;-50
2021/12/06 14:14:27;;;;;;;;;;;4.50;99.90;;;;;;10286900;28;84777;-50
2021/12/06 14:19:29;;;;;;;;;;;4.60;99.90;;;;;;10285447;28;84775;-47
2021/12/06 14:24:30;;;;;;;;;;;4.70;99.90;;;;;;10286557;28;85181;-47
2021/12/06 14:29:33;;;;;;;;;;;4.60;99.90;;;;;;10286039;28;84079;-51
2021/12/06 14:34:34;;;;;;;;;;;4.60;99.90;;;;;;10286192;28;86812;-53
2021/12/06 14:39:36;;;;;;;;;;;4.50;99.90;;;;;;10287889;28;84970;-50
2021/12/06 14:44:42;;;;;;;;;;;4.30;99.90;;;;;;10290570;28;85040;-48
2021/12/06 14:49:44;;;;;;;;;;;4.30;99.90;;;;;;10318114;28;84981;-47
2021/12/06 14:55:10;;;;;;;;;;;4.20;99.90;;;;;;10328623;28;85030;-48
2021/12/06 15:00:16;;;;;;;;;;;4.00;99.90;;;;;;10338470;28;84749;-61
2021/12/06 15:05:22;;;;;;;;;;;4.10;99.90;;;;;;10345889;28;84317;-58
2021/12/06 15:10:23;;;;;;;;;;;4.20;99.90;;;;;;10337408;28;84293;-58
2021/12/06 15:15:27;;;;;;;;;;;4.10;99.90;;;;;;10336060;28;84789;-59
2021/12/06 15:20:29;;;;;;;;;;;4.00;99.90;;;;;;10332530;28;85127;-56
2021/12/06 15:25:29;;;;;;;;;;;4.00;99.90;;;;;;10330380;28;85284;-50
2021/12/06 15:30:31;;;;;;;;;;;4.00;99.90;;;;;;10332647;28;84402;-46
2021/12/06 15:35:34;;;;;;;;;;;4.00;99.90;;;;;;10331551;28;84939;-44
2021/12/06 15:40:34;;;;;;;;;;;4.00;99.90;;;;;;10333120;28;87112;-54
2021/12/06 15:45:35;;;;;;;;;;;4.00;99.90;;;;;;10334159;28;84996;-51
2021/12/06 15:50:36;;;;;;;;;;;4.00;99.90;;;;;;10332992;28;84194;-52
2021/12/06 15:55:37;;;;;;;;;;;4.00;99.90;;;;;;10282010;28;84172;-48
2021/12/06 16:00:40;;;;;;;;;;;4.00;99.90;;;;;;10290397;28;84216;-48
2021/12/06 16:05:42;;;;;;;;;;;4.00;99.90;;;;;;10289355;28;84176;-53
2021/12/06 16:10:44;;;;;;;;;;;4.10;99.90;;;;;;10290471;28;84168;-51
2021/12/06 16:15:46;;;;;;;;;;;4.20;99.90;;;;;;10315470;22;84140;-55
2021/12/06 16:20:53;;;;;;;;;;;4.10;99.90;;;;;;10369246;28;85146;-55
2021/12/06 16:25:57;;;;;;;;;;;4.10;99.90;;;;;;10371839;28;84929;-57
2021/12/06 16:31:00;;;;;;;;;;;3.90;99.90;;;;;;10366499;28;84894;-54
2021/12/06 16:36:14;;;;;;;;;;;3.90;99.90;;;;;;10359647;28;86770;-56
2021/12/06 16:41:16;;;;;;;;;;;3.90;99.90;;;;;;10377506;28;84965;-53
2021/12/06 16:46:17;;;;;;;;;;;4.00;99.90;;;;;;10379793;28;84759;-53
2021/12/06 16:51:38;;;;;;;;;;;3.90;99.90;;;;;;10389781;28;84247;-56
2021/12/06 16:56:42;;;;;;;;;;;3.90;99.90;;;;;;10396015;28;84180;-57
2021/12/06 17:01:45;;;;;;;;;;;4.00;99.90;;;;;;10407186;28;84303;-57
2021/12/06 17:06:45;;;;;;;;;;;3.90;99.90;;;;;;10388088;28;84167;-57
2021/12/06 17:11:51;;;;;;;;;;;3.80;99.90;;;;;;10347700;28;84969;-55
2021/12/06 17:16:55;;;;;;;;;;;3.90;99.90;;;;;;10357156;28;84169;-56
2021/12/06 17:22:00;;;;;;;;;;;3.80;99.90;;;;;;10373623;28;85213;-58
2021/12/06 17:27:02;;;;;;;;;;;3.70;99.90;;;;;;10350778;28;84312;-53
2021/12/06 17:32:05;;;;;;;;;;;3.60;99.90;;;;;;10343637;28;85871;-56
2021/12/06 17:37:07;;;;;;;;;;;3.50;99.90;;;;;;10350139;28;85595;-57
2021/12/06 17:42:10;;;;;;;;;;;3.50;99.90;;;;;;10349108;28;84104;-57
2021/12/06 17:47:11;;;;;;;;;;;3.40;99.90;;;;;;10355903;28;84604;-55
2021/12/06 17:52:11;;;;;;;;;;;3.30;99.90;;;;;;10358195;28;84246;-54
2021/12/06 17:57:19;;;;;;;;;;;3.00;99.90;;;;;;10354845;28;84977;-55
2021/12/06 18:02:21;;;;;;;;;;;3.00;99.90;;;;;;10362831;28;85005;-55
2021/12/06 18:07:21;;;;;;;;;;;3.00;99.90;;;;;;10372438;28;84289;-56
2021/12/06 18:12:22;;;;;;;;;;;3.10;99.90;;;;;;10373656;28;84968;-55
2021/12/06 18:17:22;;;;;;;;;;;3.10;99.90;;;;;;10385689;28;84741;-55
2021/12/06 18:22:23;;;;;;;;;;;3.20;99.90;;;;;;10382617;28;84609;-55
2021/12/06 18:27:24;;;;;;;;;;;3.30;99.90;;;;;;10378480;28;84995;-53
2021/12/06 18:32:25;;;;;;;;;;;3.20;99.90;;;;;;10379921;28;84319;-55
2021/12/06 18:37:27;;;;;;;;;;;3.20;99.90;;;;;;10367294;28;85169;-58
2021/12/06 18:42:29;;;;;;;;;;;3.10;99.90;;;;;;10370285;28;85015;-56
2021/12/06 18:47:33;;;;;;;;;;;3.10;99.90;;;;;;10372769;28;84861;-54
2021/12/06 18:52:34;;;;;;;;;;;3.20;99.90;;;;;;10374954;28;85331;-53
2021/12/06 18:57:35;;;;;;;;;;;3.20;99.90;;;;;;10374300;28;84844;-52
2021/12/06 19:02:35;;;;;;;;;;;3.10;99.90;;;;;;10376188;28;84102;-56
2021/12/06 19:07:37;;;;;;;;;;;3.00;99.90;;;;;;10377389;28;84921;-57
2021/12/06 19:12:38;;;;;;;;;;;3.00;99.90;;;;;;10371974;28;84310;-54
2021/12/06 19:17:39;;;;;;;;;;;3.00;99.90;;;;;;10377422;28;84034;-56
2021/12/06 19:22:40;;;;;;;;;;;2.90;99.90;;;;;;10378507;28;84292;-53
2021/12/06 19:27:41;;;;;;;;;;;2.90;99.90;;;;;;10379518;28;84185;-53
2021/12/06 19:32:42;;;;;;;;;;;2.90;99.90;;;;;;10366907;28;84866;-54
2021/12/06 19:37:43;;;;;;;;;;;2.90;99.90;;;;;;10376792;28;84834;-55
2021/12/06 19:42:43;;;;;;;;;;;2.80;99.90;;;;;;10377262;28;84265;-52
2021/12/06 19:47:44;;;;;;;;;;;2.80;99.90;;;;;;10379954;28;84208;-54
2021/12/06 19:52:45;;;;;;;;;;;2.90;99.90;;;;;;10375026;28;84244;-52
2021/12/06 19:57:45;;;;;;;;;;;3.00;99.90;;;;;;10377720;28;84390;-56
2021/12/06 20:02:47;;;;;;;;;;;3.00;99.90;;;;;;10378286;28;85275;-57
2021/12/06 20:07:47;;;;;;;;;;;3.10;99.90;;;;;;10377303;28;86075;-52
2021/12/06 20:12:48;;;;;;;;;;;3.30;99.90;;;;;;10364569;28;87007;-55
2021/12/06 20:17:49;;;;;;;;;;;3.30;99.90;;;;;;10368503;28;84263;-57
2021/12/06 20:22:49;;;;;;;;;;;3.30;99.90;;;;;;10369814;28;85097;-54
2021/12/06 20:27:52;;;;;;;;;;;3.30;99.90;;;;;;10383450;28;84183;-57
2021/12/06 20:32:53;;;;;;;;;;;3.30;99.90;;;;;;10363166;28;84939;-56
2021/12/06 20:37:54;;;;;;;;;;;3.30;99.90;;;;;;10366920;28;85174;-59
2021/12/06 20:42:56;;;;;;;;;;;3.30;99.90;;;;;;10370478;28;84291;-57
2021/12/06 20:47:57;;;;;;;;;;;3.40;99.90;;;;;;10378705;28;84255;-56
2021/12/06 20:52:59;;;;;;;;;;;3.30;99.90;;;;;;10387775;28;85037;-58
2021/12/06 20:57:59;;;;;;;;;;;3.30;99.90;;;;;;10366521;28;87326;-56
2021/12/06 21:03:01;;;;;;;;;;;3.30;99.90;;;;;;10377504;28;84367;-57
2021/12/06 21:08:01;;;;;;;;;;;3.30;99.90;;;;;;10381772;28;84605;-58
2021/12/06 21:18:03;;;;;;;;;;;3.30;99.90;;;;;;10377929;28;84872;-53
2021/12/06 21:23:03;;;;;;;;;;;3.30;99.90;;;;;;10378419;28;84227;-55
2021/12/06 21:28:04;;;;;;;;;;;3.40;99.90;;;;;;10373692;28;85915;-57
2021/12/06 21:33:05;;;;;;;;;;;3.40;99.90;;;;;;10377565;28;84870;-57
2021/12/06 21:38:06;;;;;;;;;;;3.50;99.90;;;;;;10377800;28;85091;-55
2021/12/06 21:43:07;;;;;;;;;;;3.50;99.90;;;;;;10379202;28;84884;-56
2021/12/06 21:48:08;;;;;;;;;;;3.60;99.90;;;;;;10377309;28;85011;-55
2021/12/06 21:53:09;;;;;;;;;;;3.70;99.90;;;;;;10374955;28;85529;-57
2021/12/06 21:58:10;;;;;;;;;;;3.70;99.90;;;;;;10376747;28;84987;-56
2021/12/06 22:03:14;;;;;;;;;;;3.70;99.90;;;;;;10369386;28;84176;-55
2021/12/06 22:08:16;;;;;;;;;;;3.70;99.90;;;;;;10398758;28;84862;-54
2021/12/06 22:13:17;;;;;;;;;;;3.80;99.90;;;;;;10404587;28;84167;-55
2021/12/06 22:18:17;;;;;;;;;;;3.80;99.90;;;;;;10387076;22;84120;-50
2021/12/06 22:23:18;;;;;;;;;;;3.70;99.90;;;;;;10333918;28;84844;-48
2021/12/06 22:28:18;;;;;;;;;;;3.80;99.90;;;;;;10333203;28;84950;-48
2021/12/06 22:33:20;;;;;;;;;;;3.80;99.90;;;;;;10332194;28;85557;-45
2021/12/06 22:38:20;;;;;;;;;;;3.90;99.90;;;;;;10331488;28;85154;-50
2021/12/06 22:43:22;;;;;;;;;;;3.90;99.90;;;;;;10333247;28;85080;-50
2021/12/06 22:48:23;;;;;;;;;;;4.10;99.90;;;;;;10332456;28;84090;-50
2021/12/06 22:53:23;;;;;;;;;;;4.00;99.90;;;;;;10333715;28;84117;-46
2021/12/06 22:58:24;;;;;;;;;;;4.00;99.90;;;;;;10332663;28;84093;-46
2021/12/06 23:03:25;;;;;;;;;;;4.00;99.90;;;;;;10332751;28;84314;-47
2021/12/06 23:08:30;;;;;;;;;;;4.00;99.90;;;;;;10333103;28;84247;-49
2021/12/06 23:13:31;;;;;;;;;;;3.80;99.90;;;;;;10333036;28;84262;-47
2021/12/06 23:18:31;;;;;;;;;;;3.90;99.90;;;;;;10329515;28;85081;-50
2021/12/06 23:23:32;;;;;;;;;;;3.80;99.90;;;;;;10332995;28;84796;-47
2021/12/06 23:28:33;;;;;;;;;;;3.80;99.90;;;;;;10329873;28;84194;-52
2021/12/06 23:33:35;;;;;;;;;;;3.80;99.90;;;;;;10332582;28;84118;-50
2021/12/06 23:38:45;;;;;;;;;;;3.90;99.90;;;;;;10332162;28;83996;-50
2021/12/06 23:49:05;;;;;;;;;;;4.10;99.90;;;;;;10331757;28;85016;-50
2021/12/06 23:54:06;;;;;;;;;;;4.10;99.90;;;;;;10332944;28;84150;-47
2021/12/06 23:59:07;;;;;;;;;;;4.00;99.90;;;;;;10335399;28;84110;-47
